createdAt,value
2024-05-09T00:00:36.356Z,7.21
2024-05-09T00:03:10.649Z,7.99
2024-05-09T00:05:40.583Z,6.86
2024-05-09T00:08:08.806Z,6.76
2024-05-09T00:10:38.096Z,6.53
2024-05-09T00:13:07.056Z,6.58
2024-05-09T00:15:34.843Z,7.54
2024-05-09T00:18:02.551Z,7.62
2024-05-09T00:20:37.379Z,7.92
2024-05-09T00:23:07.768Z,7.31
2024-05-09T00:25:35.441Z,7.24
2024-05-09T00:28:02.617Z,7.38
2024-05-09T00:30:34.472Z,7.05
2024-05-09T00:33:07.586Z,6.31
2024-05-09T00:35:36.119Z,7.14
2024-05-09T00:38:03.335Z,7.51
2024-05-09T00:40:41.004Z,7.14
2024-05-09T00:43:10.968Z,7.30
2024-05-09T00:45:38.129Z,7.29
2024-05-09T00:48:07.549Z,6.87
2024-05-09T00:50:37.531Z,5.65
2024-05-09T00:53:08.361Z,5.47
2024-05-09T00:55:35.721Z,6.91
2024-05-09T00:58:03.098Z,5.68
2024-05-09T01:00:37.773Z,6.84
2024-05-09T01:03:07.324Z,5.05
2024-05-09T01:05:35.083Z,6.24
2024-05-09T01:08:03.039Z,6.61
2024-05-09T01:10:34.519Z,6.75
2024-05-09T01:13:06.815Z,7.26
2024-05-09T01:15:34.333Z,6.89
2024-05-09T01:18:03.162Z,6.76
2024-05-09T01:20:39.667Z,6.65
2024-05-09T01:23:10.293Z,6.30
2024-05-09T01:25:37.645Z,6.79
2024-05-09T01:28:04.835Z,6.56
2024-05-09T01:30:35.289Z,5.78
2024-05-09T01:33:05.678Z,6.37
2024-05-09T01:35:33.827Z,6.18
2024-05-09T01:38:00.725Z,6.28
2024-05-09T01:40:36.385Z,5.88
2024-05-09T01:43:06.165Z,5.94
2024-05-09T01:45:33.159Z,4.36
2024-05-09T01:48:00.330Z,6.23
2024-05-09T01:52:57.178Z,4.71
2024-05-09T01:55:24.075Z,5.73
2024-05-09T01:57:50.842Z,5.86
2024-05-09T02:00:26.246Z,5.80
2024-05-09T02:03:01.618Z,5.73
2024-05-09T02:05:28.771Z,6.08
2024-05-09T02:07:55.782Z,6.06
2024-05-09T02:10:26.596Z,5.88
2024-05-09T02:12:59.045Z,5.27
2024-05-09T02:15:25.830Z,4.55
2024-05-09T02:17:52.701Z,4.80
2024-05-09T02:20:29.985Z,5.54
2024-05-09T02:23:04.224Z,6.09
2024-05-09T02:25:31.586Z,5.90
2024-05-09T02:27:58.413Z,5.65
2024-05-09T02:30:35.105Z,5.85
2024-05-09T02:33:06.691Z,5.67
2024-05-09T02:35:33.939Z,5.78
2024-05-09T02:38:01.012Z,5.24
2024-05-09T02:40:35.817Z,4.84
2024-05-09T02:43:05.630Z,5.95
2024-05-09T02:45:32.725Z,5.15
2024-05-09T02:47:59.776Z,5.68
2024-05-09T02:50:34.417Z,5.26
2024-05-09T02:53:06.036Z,4.62
2024-05-09T02:55:33.252Z,5.49
2024-05-09T02:58:00.131Z,5.08
2024-05-09T03:00:35.153Z,5.64
2024-05-09T03:03:08.781Z,3.66
2024-05-09T03:05:37.195Z,5.16
2024-05-09T03:08:04.618Z,4.62
2024-05-09T03:10:36.098Z,4.94
2024-05-09T03:13:08.928Z,5.33
2024-05-09T03:15:35.903Z,5.43
2024-05-09T03:18:03.329Z,5.01
2024-05-09T03:20:34.366Z,4.41
2024-05-09T03:23:03.214Z,3.89
2024-05-09T03:25:30.238Z,4.87
2024-05-09T03:27:57.006Z,5.16
2024-05-09T03:30:38.647Z,3.99
2024-05-09T03:33:13.978Z,5.22
2024-05-09T03:35:41.928Z,5.36
2024-05-09T03:38:09.108Z,3.74
2024-05-09T03:40:35.998Z,5.30
2024-05-09T03:43:02.798Z,4.46
2024-05-09T03:45:29.565Z,5.06
2024-05-09T03:47:56.541Z,4.57
2024-05-09T03:50:30.101Z,4.99
2024-05-09T03:53:01.916Z,3.96
2024-05-09T03:55:28.824Z,4.00
2024-05-09T03:57:55.603Z,3.78
2024-05-09T04:00:30.978Z,4.80
2024-05-09T04:03:05.096Z,5.22
2024-05-09T04:05:33.128Z,5.37
2024-05-09T04:08:00.126Z,4.61
2024-05-09T04:10:33.658Z,5.46
2024-05-09T04:13:02.365Z,4.84
2024-05-09T04:15:29.527Z,4.77
2024-05-09T04:17:56.641Z,2.83
2024-05-09T04:20:33.995Z,3.46
2024-05-09T04:23:15.257Z,4.98
2024-05-09T04:25:43.275Z,4.99
2024-05-09T04:28:10.139Z,5.34
2024-05-09T04:30:40.019Z,5.48
2024-05-09T04:33:10.527Z,5.36
2024-05-09T04:35:39.667Z,4.70
2024-05-09T04:38:06.885Z,5.26
2024-05-09T04:40:36.441Z,5.88
2024-05-09T04:43:05.211Z,5.16
2024-05-09T04:45:32.150Z,6.17
2024-05-09T04:47:59.183Z,6.61
2024-05-09T04:50:35.368Z,6.45
2024-05-09T04:53:05.811Z,7.16
2024-05-09T04:55:33.285Z,8.21
2024-05-09T04:58:00.183Z,10.33
2024-05-09T05:00:34.758Z,10.82
2024-05-09T05:03:10.204Z,13.69
2024-05-09T05:05:41.148Z,15.25
2024-05-09T05:08:18.961Z,16.73
2024-05-09T05:10:47.205Z,18.95
2024-05-09T05:13:20.839Z,20.34
2024-05-09T05:15:49.656Z,21.14
2024-05-09T05:18:16.866Z,22.78
2024-05-09T05:20:44.003Z,23.27
2024-05-09T05:23:12.421Z,24.37
2024-05-09T05:25:40.016Z,24.27
2024-05-09T05:28:06.978Z,24.10
2024-05-09T05:30:35.338Z,25.35
2024-05-09T05:33:02.579Z,25.12
2024-05-09T05:35:29.661Z,25.70
2024-05-09T05:37:56.753Z,26.57
2024-05-09T05:40:32.251Z,26.58
2024-05-09T05:43:06.526Z,26.48
2024-05-09T05:45:33.353Z,27.70
2024-05-09T05:48:02.746Z,27.24
2024-05-09T05:50:35.699Z,27.10
2024-05-09T05:53:05.767Z,27.24
2024-05-09T05:55:32.935Z,28.25
2024-05-09T05:58:00.788Z,27.33
2024-05-09T06:00:34.731Z,28.49
2024-05-09T06:03:06.129Z,28.04
2024-05-09T06:05:33.196Z,28.67
2024-05-09T06:08:00.423Z,29.04
2024-05-09T06:10:37.029Z,29.61
2024-05-09T06:13:06.619Z,30.35
2024-05-09T06:15:33.525Z,31.06
2024-05-09T06:18:01.196Z,30.90
2024-05-09T06:20:35.482Z,31.72
2024-05-09T06:23:08.435Z,32.35
2024-05-09T06:25:36.061Z,33.42
2024-05-09T06:28:03.251Z,34.57
2024-05-09T06:30:37.879Z,34.79
2024-05-09T06:33:10.142Z,34.87
2024-05-09T06:35:38.365Z,36.15
2024-05-09T06:38:06.945Z,36.59
2024-05-09T06:40:37.580Z,35.48
2024-05-09T06:43:18.068Z,35.45
2024-05-09T06:45:49.723Z,34.92
2024-05-09T06:48:18.398Z,34.64
2024-05-09T06:50:45.729Z,33.12
2024-05-09T06:53:15.967Z,33.12
2024-05-09T06:55:42.990Z,31.76
2024-05-09T06:58:09.851Z,30.40
2024-05-09T07:00:39.834Z,28.92
2024-05-09T07:03:13.655Z,29.14
2024-05-09T07:05:42.961Z,26.96
2024-05-09T07:08:10.009Z,26.97
2024-05-09T07:10:37.432Z,24.99
2024-05-09T07:13:10.985Z,25.37
2024-05-09T07:15:38.112Z,24.96
2024-05-09T07:18:23.435Z,23.78
2024-05-09T07:20:50.936Z,23.20
2024-05-09T07:23:18.451Z,21.94
2024-05-09T07:25:45.760Z,21.76
2024-05-09T07:28:14.776Z,21.22
2024-05-09T07:30:42.187Z,20.33
2024-05-09T07:33:09.183Z,20.44
2024-05-09T07:35:36.307Z,18.87
2024-05-09T07:38:03.465Z,18.87
2024-05-09T07:40:35.872Z,16.91
2024-05-09T07:43:04.597Z,17.39
2024-05-09T07:45:48.044Z,14.99
2024-05-09T07:52:38.538Z,16.23
2024-05-09T07:53:46.548Z,16.71
2024-05-09T07:56:16.992Z,15.39
2024-05-09T07:58:45.386Z,15.64
2024-05-09T08:01:12.416Z,15.53
2024-05-09T08:03:39.603Z,15.86
2024-05-09T08:06:06.616Z,15.12
2024-05-09T08:08:33.367Z,15.89
2024-05-09T08:11:00.111Z,15.97
2024-05-09T08:13:26.874Z,15.54
2024-05-09T08:15:53.712Z,16.13
2024-05-09T08:18:20.621Z,15.68
2024-05-09T08:20:48.311Z,16.13
2024-05-09T08:23:15.104Z,16.30
2024-05-09T08:25:41.876Z,15.99
2024-05-09T08:28:08.779Z,16.38
2024-05-09T08:30:37.484Z,16.46
2024-05-09T08:33:06.223Z,15.14
2024-05-09T08:35:33.966Z,16.68
2024-05-09T08:38:05.090Z,16.86
2024-05-09T08:40:35.736Z,14.89
2024-05-09T08:43:11.309Z,15.79
2024-05-09T08:45:43.589Z,15.39
2024-05-09T08:48:12.532Z,16.80
2024-05-09T08:50:40.762Z,16.23
2024-05-09T08:53:08.654Z,16.67
2024-05-09T08:55:40.223Z,15.28
2024-05-09T08:58:09.677Z,16.09
2024-05-09T09:00:37.915Z,16.41
2024-05-09T09:03:07.046Z,16.53
2024-05-09T09:05:34.383Z,15.18
2024-05-09T09:08:01.660Z,16.68
2024-05-09T09:10:32.188Z,15.30
2024-05-09T09:13:09.540Z,16.29
2024-05-09T09:15:49.958Z,15.19
2024-05-09T09:18:17.475Z,16.50
2024-05-09T09:20:44.763Z,14.80
2024-05-09T09:23:11.672Z,15.35
2024-05-09T09:25:41.694Z,15.93
2024-05-09T09:28:08.674Z,15.75
2024-05-09T09:30:39.683Z,16.79
2024-05-09T09:33:06.874Z,16.91
2024-05-09T09:35:34.453Z,16.52
2024-05-09T09:38:02.669Z,16.18
2024-05-09T09:40:37.529Z,16.84
2024-05-09T09:43:12.307Z,16.55
2024-05-09T09:45:39.300Z,16.20
2024-05-09T09:48:06.794Z,16.69
2024-05-09T09:50:35.125Z,16.92
2024-05-09T09:53:02.326Z,16.67
2024-05-09T09:55:29.282Z,16.78
2024-05-09T09:57:56.336Z,16.52
2024-05-09T10:00:29.963Z,16.62
2024-05-09T10:02:59.872Z,16.92
2024-05-09T10:05:29.220Z,17.22
2024-05-09T10:07:58.239Z,14.63
2024-05-09T10:10:31.872Z,16.62
2024-05-09T10:13:00.935Z,16.75
2024-05-09T10:15:28.047Z,15.67
2024-05-09T10:17:54.997Z,16.85
2024-05-09T10:20:28.046Z,17.11
2024-05-09T10:22:59.042Z,16.81
2024-05-09T10:25:25.927Z,16.83
2024-05-09T10:27:56.118Z,17.26
2024-05-09T10:30:29.910Z,17.41
2024-05-09T10:33:02.636Z,17.24
2024-05-09T10:35:31.478Z,16.87
2024-05-09T10:38:05.800Z,17.08
2024-05-09T10:40:32.751Z,17.17
2024-05-09T10:43:01.971Z,17.21
2024-05-09T10:45:30.414Z,17.12
2024-05-09T10:47:57.439Z,16.19
2024-05-09T10:50:28.675Z,17.16
2024-05-09T10:52:58.764Z,17.25
2024-05-09T10:55:25.774Z,17.08
2024-05-09T10:57:52.688Z,17.29
2024-05-09T11:00:27.517Z,17.44
2024-05-09T11:03:00.153Z,16.70
2024-05-09T11:05:27.322Z,17.66
2024-05-09T11:07:54.339Z,17.46
2024-05-09T11:10:27.575Z,17.42
2024-05-09T11:13:00.202Z,17.69
2024-05-09T11:15:37.193Z,17.43
2024-05-09T11:18:04.326Z,16.74
2024-05-09T11:20:37.803Z,17.74
2024-05-09T11:23:08.000Z,17.72
2024-05-09T11:25:34.835Z,16.78
2024-05-09T11:28:02.161Z,17.90
2024-05-09T11:30:32.042Z,17.60
2024-05-09T11:33:04.906Z,17.80
2024-05-09T11:35:31.951Z,18.05
2024-05-09T11:37:58.807Z,17.75
2024-05-09T11:40:32.024Z,17.67
2024-05-09T11:43:00.937Z,17.11
2024-05-09T11:45:27.752Z,17.59
2024-05-09T11:47:54.790Z,17.24
2024-05-09T11:50:27.304Z,17.59
2024-05-09T11:53:01.750Z,17.85
2024-05-09T11:55:29.073Z,17.33
2024-05-09T11:57:56.080Z,17.75
2024-05-09T12:00:33.686Z,18.08
2024-05-09T12:03:05.484Z,16.93
2024-05-09T12:05:33.656Z,18.02
2024-05-09T12:08:01.022Z,18.26
2024-05-09T12:10:33.263Z,17.58
2024-05-09T12:13:03.992Z,17.68
2024-05-09T12:15:32.570Z,17.85
2024-05-09T12:18:02.792Z,18.32
2024-05-09T12:20:36.702Z,17.91
2024-05-09T12:23:06.189Z,17.68
2024-05-09T12:25:33.098Z,18.10
2024-05-09T12:28:00.479Z,16.93
2024-05-09T12:30:35.765Z,17.58
2024-05-09T12:33:07.607Z,17.94
2024-05-09T12:35:34.575Z,18.10
2024-05-09T12:38:01.505Z,18.01
2024-05-09T12:40:35.605Z,17.41
2024-05-09T12:43:09.593Z,17.49
2024-05-09T12:45:37.925Z,17.99
2024-05-09T12:48:07.539Z,18.11
2024-05-09T12:50:41.405Z,18.20
2024-05-09T12:53:08.470Z,18.26
2024-05-09T12:55:43.942Z,18.41
2024-05-09T12:58:18.792Z,18.53
2024-05-09T13:00:46.391Z,17.85
2024-05-09T13:03:13.782Z,18.01
2024-05-09T13:05:46.621Z,18.17
2024-05-09T13:08:13.723Z,18.21
2024-05-09T13:10:40.801Z,16.41
2024-05-09T13:13:09.601Z,18.02
2024-05-09T13:16:00.777Z,18.47
2024-05-09T13:18:27.788Z,17.15
2024-05-09T13:20:54.793Z,17.55
2024-05-09T13:23:26.573Z,18.07
2024-05-09T13:25:53.374Z,17.22
2024-05-09T13:28:21.303Z,18.13
2024-05-09T13:30:48.257Z,17.82
2024-05-09T13:33:15.234Z,18.08
2024-05-09T13:35:46.640Z,17.75
2024-05-09T13:38:17.302Z,17.63
2024-05-09T13:40:44.427Z,17.54
2024-05-09T13:43:11.555Z,17.49
2024-05-09T13:45:38.523Z,17.85
2024-05-09T13:51:46.296Z,17.87
2024-05-09T13:54:13.088Z,17.67
2024-05-09T13:56:40.901Z,17.80
2024-05-09T13:59:08.377Z,17.63
2024-05-09T14:01:35.246Z,17.52
2024-05-09T14:04:02.314Z,16.86
2024-05-09T14:06:29.492Z,17.06
2024-05-09T14:08:56.307Z,17.53
2024-05-09T14:11:23.363Z,17.59
2024-05-09T14:13:50.332Z,16.96
2024-05-09T14:16:17.371Z,16.27
2024-05-09T14:18:44.339Z,17.37
2024-05-09T14:21:11.231Z,16.93
2024-05-09T14:23:38.088Z,17.20
2024-05-09T14:26:05.073Z,17.38
2024-05-09T14:28:31.873Z,17.50
2024-05-09T14:31:00.517Z,17.74
2024-05-09T14:33:27.792Z,17.38
2024-05-09T14:35:54.887Z,18.44
2024-05-09T14:38:22.105Z,18.35
2024-05-09T14:40:49.297Z,17.54
2024-05-09T14:43:17.411Z,18.04
2024-05-09T14:45:45.014Z,17.94
2024-05-09T14:48:14.194Z,17.55
2024-05-09T14:50:41.499Z,17.65
2024-05-09T14:53:12.050Z,17.85
2024-05-09T14:55:40.431Z,18.51
2024-05-09T14:58:12.005Z,18.03
2024-05-09T15:00:46.710Z,17.83
2024-05-09T15:03:18.083Z,18.00
2024-05-09T15:05:45.313Z,17.08
2024-05-09T15:08:12.346Z,16.63
2024-05-09T15:10:39.484Z,16.84
2024-05-09T15:13:08.704Z,15.53
2024-05-09T15:15:37.255Z,17.46
2024-05-09T15:18:05.574Z,16.45
2024-05-09T15:20:36.098Z,16.62
2024-05-09T15:23:05.162Z,16.10
2024-05-09T15:25:33.606Z,15.66
2024-05-09T15:28:00.751Z,16.62
2024-05-09T15:30:31.096Z,15.83
2024-05-09T15:33:00.861Z,16.24
2024-05-09T15:35:28.140Z,16.74
2024-05-09T15:37:55.121Z,16.52
2024-05-09T15:40:31.252Z,16.38
2024-05-09T15:43:05.744Z,16.51
2024-05-09T15:45:33.053Z,15.76
2024-05-09T15:48:00.224Z,15.48
2024-05-09T15:51:02.080Z,17.43
2024-05-09T15:53:29.320Z,16.96
2024-05-09T15:55:56.123Z,17.37
2024-05-09T15:58:23.124Z,16.12
2024-05-09T16:00:52.125Z,15.67
2024-05-09T16:03:21.367Z,15.72
2024-05-09T16:05:48.788Z,15.68
2024-05-09T16:08:16.121Z,16.20
2024-05-09T16:10:46.115Z,15.52
2024-05-09T16:13:14.137Z,15.97
2024-05-09T16:15:41.304Z,15.77
2024-05-09T16:18:08.382Z,15.63
2024-05-09T16:20:40.080Z,14.17
2024-05-09T16:23:09.406Z,14.84
2024-05-09T16:25:36.515Z,15.29
2024-05-09T16:28:07.448Z,15.39
2024-05-09T16:30:37.379Z,14.76
2024-05-09T16:33:05.521Z,14.53
2024-05-09T16:35:33.146Z,15.73
2024-05-09T16:38:01.916Z,15.64
2024-05-09T16:40:36.394Z,15.96
2024-05-09T16:43:06.991Z,15.45
2024-05-09T16:45:34.336Z,15.87
2024-05-09T16:48:01.997Z,15.37
2024-05-09T16:50:33.415Z,14.79
2024-05-09T16:53:06.682Z,16.06
2024-05-09T16:55:34.639Z,15.52
2024-05-09T16:58:02.196Z,16.41
2024-05-09T17:00:39.390Z,15.46
2024-05-09T17:03:10.887Z,15.11
2024-05-09T17:05:38.959Z,14.96
2024-05-09T17:08:06.601Z,15.89
2024-05-09T17:10:35.318Z,15.97
2024-05-09T17:16:43.671Z,14.69
2024-05-09T17:19:10.547Z,14.20
2024-05-09T17:21:38.476Z,14.54
2024-05-09T17:24:05.781Z,13.73
2024-05-09T17:26:32.643Z,13.84
2024-05-09T17:29:01.986Z,14.48
2024-05-09T17:31:31.231Z,13.72
2024-05-09T17:33:58.713Z,14.70
2024-05-09T17:36:35.507Z,14.79
2024-05-09T17:39:31.906Z,13.67
2024-05-09T17:45:47.636Z,13.32
2024-05-09T17:48:23.686Z,13.45
2024-05-09T17:50:52.024Z,13.77
2024-05-09T17:53:20.416Z,11.81
2024-05-09T17:55:49.930Z,12.90
2024-05-09T17:58:17.209Z,11.55
2024-05-09T18:00:44.764Z,11.52
2024-05-09T18:03:13.239Z,11.30
2024-05-09T18:05:42.317Z,11.74
2024-05-09T18:08:10.016Z,13.56
2024-05-09T18:10:39.464Z,11.46
2024-05-09T18:13:11.310Z,11.51
2024-05-09T18:15:39.095Z,12.40
2024-05-09T18:18:06.686Z,11.72
2024-05-09T18:20:41.814Z,12.80
2024-05-09T18:23:14.081Z,12.54
2024-05-09T18:25:41.728Z,11.68
2024-05-09T18:28:08.934Z,11.53
2024-05-09T18:30:37.176Z,11.11
2024-05-09T18:33:06.639Z,10.28
2024-05-09T18:35:35.299Z,10.72
2024-05-09T18:38:02.372Z,11.39
2024-05-09T18:40:34.416Z,12.45
2024-05-09T18:43:05.180Z,11.78
2024-05-09T18:45:33.269Z,10.15
2024-05-09T18:48:00.416Z,10.98
2024-05-09T18:50:34.912Z,11.85
2024-05-09T18:53:12.968Z,11.83
2024-05-09T18:55:43.978Z,10.92
2024-05-09T18:58:11.006Z,11.55
2024-05-09T19:00:40.443Z,11.48
2024-05-09T19:03:12.422Z,10.65
2024-05-09T19:05:42.759Z,11.05
2024-05-09T19:08:10.559Z,10.97
2024-05-09T19:10:38.538Z,9.79
2024-05-09T19:13:09.401Z,11.23
2024-05-09T19:15:39.899Z,10.92
2024-05-09T19:18:07.652Z,10.52
2024-05-09T19:20:36.254Z,10.32
2024-05-09T19:23:04.650Z,10.48
2024-05-09T19:25:32.256Z,9.58
2024-05-09T19:27:59.877Z,10.42
2024-05-09T19:30:36.409Z,10.10
2024-05-09T19:33:07.860Z,10.93
2024-05-09T19:35:35.063Z,10.00
2024-05-09T19:38:01.977Z,10.39
2024-05-09T19:40:32.189Z,10.71
2024-05-09T19:43:05.107Z,10.57
2024-05-09T19:45:34.442Z,10.80
2024-05-09T19:48:02.419Z,10.16
2024-05-09T19:50:39.866Z,10.36
2024-05-09T19:53:11.486Z,9.99
2024-05-09T19:55:41.298Z,10.21
2024-05-09T19:58:10.088Z,9.67
2024-05-09T20:00:39.881Z,10.12
2024-05-09T20:03:09.380Z,10.17
2024-05-09T20:05:37.404Z,9.52
2024-05-09T20:08:05.185Z,9.95
2024-05-09T20:10:34.287Z,10.41
2024-05-09T20:13:03.336Z,9.94
2024-05-09T20:15:34.289Z,10.14
2024-05-09T20:18:01.447Z,8.51
2024-05-09T20:20:36.263Z,9.64
2024-05-09T20:23:07.059Z,9.93
2024-05-09T20:25:33.835Z,9.24
2024-05-09T20:28:00.959Z,9.64
2024-05-09T20:30:32.287Z,9.47
2024-05-09T20:33:02.703Z,9.42
2024-05-09T20:35:32.126Z,9.34
2024-05-09T20:37:59.690Z,9.55
2024-05-09T20:40:32.626Z,8.78
2024-05-09T20:43:03.150Z,8.74
2024-05-09T20:45:31.159Z,9.11
2024-05-09T20:47:58.407Z,9.27
2024-05-09T20:50:35.628Z,8.65
2024-05-09T20:53:11.091Z,9.05
2024-05-09T20:55:38.363Z,8.50
2024-05-09T20:58:05.447Z,8.42
2024-05-09T21:00:39.990Z,8.63
2024-05-09T21:03:10.596Z,8.67
2024-05-09T21:05:38.207Z,9.07
2024-05-09T21:08:05.660Z,8.72
2024-05-09T21:10:34.087Z,8.62
2024-05-09T21:13:02.767Z,8.22
2024-05-09T21:15:30.336Z,8.26
2024-05-09T21:17:57.272Z,7.60
2024-05-09T21:20:30.639Z,7.98
2024-05-09T21:22:58.961Z,8.66
2024-05-09T21:25:25.920Z,8.21
2024-05-09T21:27:53.177Z,7.71
2024-05-09T21:30:31.503Z,8.00
2024-05-09T21:33:10.415Z,7.80
2024-05-09T21:35:40.674Z,8.16
2024-05-09T21:38:07.947Z,7.60
2024-05-09T21:40:36.499Z,6.62
2024-05-09T21:43:05.016Z,7.87
2024-05-09T21:45:37.367Z,8.18
2024-05-09T21:48:08.248Z,7.79
2024-05-09T21:50:40.426Z,5.83
2024-05-09T21:53:12.638Z,7.05
2024-05-09T21:55:40.163Z,7.17
2024-05-09T21:58:07.086Z,7.20
2024-05-09T22:00:38.126Z,7.55
2024-05-09T22:03:07.534Z,7.79
2024-05-09T22:05:35.770Z,7.52
2024-05-09T22:08:03.003Z,7.25
2024-05-09T22:10:34.822Z,6.37
2024-05-09T22:13:04.979Z,7.60
2024-05-09T22:15:36.444Z,5.17
2024-05-09T22:18:04.532Z,7.07
2024-05-09T22:20:37.103Z,7.40
2024-05-09T22:23:06.141Z,7.51
2024-05-09T22:25:33.779Z,6.97
2024-05-09T22:28:04.247Z,6.19
2024-05-09T22:30:36.358Z,7.45
2024-05-09T22:33:11.886Z,6.95
2024-05-09T22:35:41.407Z,7.09
2024-05-09T22:38:08.687Z,7.42
2024-05-09T22:40:46.252Z,6.59
2024-05-09T22:43:21.515Z,7.09
2024-05-09T22:45:50.709Z,6.55
2024-05-09T22:48:18.160Z,4.97
2024-05-09T22:50:45.354Z,5.29
2024-05-09T22:53:12.546Z,7.05
2024-05-09T22:55:39.318Z,6.80
2024-05-09T22:58:06.142Z,7.13
2024-05-09T23:00:33.566Z,7.05
2024-05-09T23:03:01.119Z,6.49
2024-05-09T23:05:28.464Z,6.78
2024-05-09T23:07:55.464Z,4.76
2024-05-09T23:10:30.830Z,6.40
2024-05-09T23:13:02.169Z,6.65
2024-05-09T23:15:29.180Z,4.92
2024-05-09T23:17:56.260Z,5.82
2024-05-09T23:20:33.317Z,6.47
2024-05-09T23:23:05.334Z,5.51
2024-05-09T23:25:32.107Z,6.36
2024-05-09T23:27:58.952Z,5.01
2024-05-09T23:30:34.023Z,6.53
2024-05-09T23:33:05.690Z,4.65
2024-05-09T23:35:32.663Z,6.74
2024-05-09T23:37:59.708Z,5.42
2024-05-09T23:40:35.080Z,6.31
2024-05-09T23:43:05.876Z,5.82
2024-05-09T23:45:32.827Z,6.23
2024-05-09T23:48:00.032Z,5.84
2024-05-09T23:50:34.116Z,6.14
2024-05-09T23:53:04.378Z,6.09
2024-05-09T23:55:32.217Z,6.07
2024-05-09T23:57:59.411Z,4.44
